Sonora Municipal Airport
KSOA : now visible

Airfield :











YOU CAN JOIN US ON...

 
LOGIN :

Register | Disclaimer

   EN    FR    IT 

 









Legend :    VFR   Marginal VFR   IFR   Intensive IFR   Very Intensive IFR
Visi :
Ceiling :
>= 8 km
>= 3000ft
5 to 8 km
1000 to 3000 ft
1500m to 5 km
500 to 1000 ft
800 to 1500m
200 to 500 ft
< 800m
< 200 ft
Symbols :   Thunderstorms  Fog  Heavy snow  Heavy precipitations  Wind > 20 kt






- Airport Elevation : 2140 ft


KSOA - Sonora Municipal

CURRENT METAR :
  • 282135Z AUTO 00000KT 10SM -RA CLR 23/17 A3005 RMK AO2

EXPIRED METARs :
  • 282115Z AUTO 00000KT 10SM CLR 25/15 A3006 RMK AO2 LTG DSNT E
  • 282055Z AUTO 00000KT 10SM CLR 26/17 A3007 RMK AO2
  • 282035Z AUTO 00000KT 10SM FEW036 FEW065 FEW095 27/15 A3007 RMK AO2 LTG DSNT E
  • 282015Z AUTO 00000KT 10SM CLR 27/14 A3007 RMK AO2 LTG DSNT E
  • 281955Z AUTO 00000KT 10SM CLR 29/18 A3005 RMK AO2 LTG DSNT NE AND NW
  • 281935Z AUTO 00000KT 10SM CLR 30/18 A3005 RMK AO2 LTG DSNT NE AND E
  • 281915Z AUTO 00000KT 10SM FEW060 FEW080 FEW100 30/17 A3004 RMK AO2 LTG DSNT NW-E
  • 281855Z AUTO 00000KT 10SM FEW032 FEW048 SCT075 30/18 A3004 RMK AO2 LTG DSNT N AND NE

TAF KSOA
Valid from the 28 at 18:00 until the 29 at 18:00 UTC


281720Z 2818/2918 01009KT P6SM FEW250
FM282000 02009KT P6SM VCTS SCT050CB
FM290000 02009KT P6SM FEW050
FM290300 02003KT P6SM SKC
KZHU FIR / North America



MET'MAP, your aeronautical weather chart ! - Copyright ORBIFLY December 2007 - Disclaimer

ORBIFLY MET'MAP TEAM :

Programming & Development : Alexandra Zaïnal
Concept & original design : Baudouin d'Aumeries
Assistance for programming : Marc-Olivier Méhu
Technical & hardware support : Manuel Goepfert

Contact : metmap@orbifly.com




SOURCES & CREDITS :

   NOAA       Earth
Advisory